sensor_id;sensor_type;location;lat;lon;timestamp;P1;durP1;ratioP1;P2;durP2;ratioP2
34920;SDS011;21128;50.016;20.002;2022-08-21T00:00:07;26.20;;;15.47;;
34920;SDS011;21128;50.016;20.002;2022-08-21T00:02:58;23.60;;;15.13;;
34920;SDS011;21128;50.016;20.002;2022-08-21T00:05:27;20.20;;;15.07;;
34920;SDS011;21128;50.016;20.002;2022-08-21T00:07:56;20.23;;;14.77;;
34920;SDS011;21128;50.016;20.002;2022-08-21T00:10:23;27.93;;;16.73;;
34920;SDS011;21128;50.016;20.002;2022-08-21T00:12:57;31.43;;;16.67;;
34920;SDS011;21128;50.016;20.002;2022-08-21T00:15:26;24.20;;;15.13;;
34920;SDS011;21128;50.016;20.002;2022-08-21T00:18:01;32.73;;;18.00;;
34920;SDS011;21128;50.016;20.002;2022-08-21T00:20:30;27.27;;;16.00;;
34920;SDS011;21128;50.016;20.002;2022-08-21T00:23:05;27.63;;;16.57;;
34920;SDS011;21128;50.016;20.002;2022-08-21T00:25:33;26.40;;;16.00;;
34920;SDS011;21128;50.016;20.002;2022-08-21T00:28:00;25.53;;;16.00;;
34920;SDS011;21128;50.016;20.002;2022-08-21T00:30:28;24.40;;;16.37;;
34920;SDS011;21128;50.016;20.002;2022-08-21T00:32:57;26.33;;;16.23;;
34920;SDS011;21128;50.016;20.002;2022-08-21T00:35:35;23.47;;;16.03;;
34920;SDS011;21128;50.016;20.002;2022-08-21T00:38:10;26.83;;;16.37;;
34920;SDS011;21128;50.016;20.002;2022-08-21T00:40:43;23.27;;;14.87;;
34920;SDS011;21128;50.016;20.002;2022-08-21T00:43:16;22.67;;;14.60;;
34920;SDS011;21128;50.016;20.002;2022-08-21T00:45:48;24.23;;;15.60;;
34920;SDS011;21128;50.016;20.002;2022-08-21T00:48:17;24.23;;;16.40;;
34920;SDS011;21128;50.016;20.002;2022-08-21T00:50:46;21.40;;;15.48;;
34920;SDS011;21128;50.016;20.002;2022-08-21T00:53:19;24.57;;;16.37;;
34920;SDS011;21128;50.016;20.002;2022-08-21T00:55:52;31.33;;;16.87;;
34920;SDS011;21128;50.016;20.002;2022-08-21T00:58:21;26.43;;;15.40;;
34920;SDS011;21128;50.016;20.002;2022-08-21T01:00:49;19.57;;;15.23;;
34920;SDS011;21128;50.016;20.002;2022-08-21T01:03:18;31.00;;;15.50;;
34920;SDS011;21128;50.016;20.002;2022-08-21T01:05:49;26.13;;;15.83;;
34920;SDS011;21128;50.016;20.002;2022-08-21T01:08:17;21.70;;;15.97;;
34920;SDS011;21128;50.016;20.002;2022-08-21T01:10:45;24.75;;;15.65;;
34920;SDS011;21128;50.016;20.002;2022-08-21T01:13:15;21.67;;;14.87;;
34920;SDS011;21128;50.016;20.002;2022-08-21T01:16:04;25.10;;;16.33;;
34920;SDS011;21128;50.016;20.002;2022-08-21T01:18:35;21.80;;;15.03;;
34920;SDS011;21128;50.016;20.002;2022-08-21T01:21:13;18.80;;;15.33;;
34920;SDS011;21128;50.016;20.002;2022-08-21T01:23:49;17.63;;;15.20;;
34920;SDS011;21128;50.016;20.002;2022-08-21T01:26:20;24.93;;;16.00;;
34920;SDS011;21128;50.016;20.002;2022-08-21T01:28:52;23.30;;;15.07;;
34920;SDS011;21128;50.016;20.002;2022-08-21T01:31:26;23.47;;;14.73;;
34920;SDS011;21128;50.016;20.002;2022-08-21T01:33:55;27.90;;;15.07;;
34920;SDS011;21128;50.016;20.002;2022-08-21T01:36:23;22.73;;;13.90;;
34920;SDS011;21128;50.016;20.002;2022-08-21T01:38:57;21.97;;;15.43;;
34920;SDS011;21128;50.016;20.002;2022-08-21T01:41:31;25.00;;;15.65;;
34920;SDS011;21128;50.016;20.002;2022-08-21T01:43:58;22.13;;;14.53;;
34920;SDS011;21128;50.016;20.002;2022-08-21T01:46:25;22.63;;;15.40;;
34920;SDS011;21128;50.016;20.002;2022-08-21T01:48:52;27.07;;;15.73;;
34920;SDS011;21128;50.016;20.002;2022-08-21T01:51:19;22.73;;;16.55;;
34920;SDS011;21128;50.016;20.002;2022-08-21T01:53:46;26.27;;;16.73;;
34920;SDS011;21128;50.016;20.002;2022-08-21T01:56:19;30.20;;;16.65;;
34920;SDS011;21128;50.016;20.002;2022-08-21T01:58:46;22.43;;;16.77;;
34920;SDS011;21128;50.016;20.002;2022-08-21T02:01:14;24.23;;;16.27;;
34920;SDS011;21128;50.016;20.002;2022-08-21T02:03:41;24.43;;;17.23;;
34920;SDS011;21128;50.016;20.002;2022-08-21T02:06:12;23.33;;;15.97;;
34920;SDS011;21128;50.016;20.002;2022-08-21T02:08:41;29.70;;;17.13;;
34920;SDS011;21128;50.016;20.002;2022-08-21T02:11:08;23.97;;;16.00;;
34920;SDS011;21128;50.016;20.002;2022-08-21T02:13:35;25.77;;;17.07;;
34920;SDS011;21128;50.016;20.002;2022-08-21T02:16:22;23.93;;;14.93;;
34920;SDS011;21128;50.016;20.002;2022-08-21T02:18:49;25.33;;;17.37;;
34920;SDS011;21128;50.016;20.002;2022-08-21T02:21:16;24.52;;;17.52;;
34920;SDS011;21128;50.016;20.002;2022-08-21T02:23:49;23.83;;;16.47;;
34920;SDS011;21128;50.016;20.002;2022-08-21T02:26:16;26.30;;;16.73;;
34920;SDS011;21128;50.016;20.002;2022-08-21T02:28:43;26.17;;;16.93;;
34920;SDS011;21128;50.016;20.002;2022-08-21T02:31:11;25.03;;;18.40;;
34920;SDS011;21128;50.016;20.002;2022-08-21T02:33:38;23.42;;;16.55;;
34920;SDS011;21128;50.016;20.002;2022-08-21T02:36:06;20.77;;;16.30;;
34920;SDS011;21128;50.016;20.002;2022-08-21T02:38:34;26.23;;;17.62;;
34920;SDS011;21128;50.016;20.002;2022-08-21T02:41:07;24.43;;;17.83;;
34920;SDS011;21128;50.016;20.002;2022-08-21T02:43:42;26.80;;;16.23;;
34920;SDS011;21128;50.016;20.002;2022-08-21T02:46:17;24.37;;;16.67;;
34920;SDS011;21128;50.016;20.002;2022-08-21T02:48:46;25.80;;;17.07;;
34920;SDS011;21128;50.016;20.002;2022-08-21T02:51:19;28.43;;;18.10;;
34920;SDS011;21128;50.016;20.002;2022-08-21T02:53:47;23.00;;;17.17;;
34920;SDS011;21128;50.016;20.002;2022-08-21T02:56:15;30.63;;;17.47;;
34920;SDS011;21128;50.016;20.002;2022-08-21T02:58:48;26.00;;;17.27;;
34920;SDS011;21128;50.016;20.002;2022-08-21T03:01:17;26.67;;;17.73;;
34920;SDS011;21128;50.016;20.002;2022-08-21T03:03:45;30.20;;;18.20;;
34920;SDS011;21128;50.016;20.002;2022-08-21T03:06:16;29.50;;;19.43;;
34920;SDS011;21128;50.016;20.002;2022-08-21T03:08:44;34.40;;;18.63;;
34920;SDS011;21128;50.016;20.002;2022-08-21T03:11:12;26.68;;;17.87;;
34920;SDS011;21128;50.016;20.002;2022-08-21T03:13:40;34.47;;;19.07;;
34920;SDS011;21128;50.016;20.002;2022-08-21T03:16:20;33.33;;;18.83;;
34920;SDS011;21128;50.016;20.002;2022-08-21T03:18:47;32.70;;;19.67;;
34920;SDS011;21128;50.016;20.002;2022-08-21T03:21:14;30.80;;;18.73;;
34920;SDS011;21128;50.016;20.002;2022-08-21T03:23:41;30.47;;;18.50;;
34920;SDS011;21128;50.016;20.002;2022-08-21T03:26:08;34.80;;;18.30;;
34920;SDS011;21128;50.016;20.002;2022-08-21T03:28:37;26.17;;;17.90;;
34920;SDS011;21128;50.016;20.002;2022-08-21T03:31:05;31.30;;;17.67;;
34920;SDS011;21128;50.016;20.002;2022-08-21T03:33:32;27.20;;;18.37;;
34920;SDS011;21128;50.016;20.002;2022-08-21T03:36:00;26.00;;;19.70;;
34920;SDS011;21128;50.016;20.002;2022-08-21T03:38:30;24.73;;;17.93;;
34920;SDS011;21128;50.016;20.002;2022-08-21T03:40:58;34.40;;;18.77;;
34920;SDS011;21128;50.016;20.002;2022-08-21T03:43:26;31.63;;;19.40;;
34920;SDS011;21128;50.016;20.002;2022-08-21T03:46:01;30.85;;;18.05;;
34920;SDS011;21128;50.016;20.002;2022-08-21T03:48:30;31.93;;;16.73;;
34920;SDS011;21128;50.016;20.002;2022-08-21T03:50:57;29.40;;;17.20;;
34920;SDS011;21128;50.016;20.002;2022-08-21T03:53:30;29.50;;;17.97;;
34920;SDS011;21128;50.016;20.002;2022-08-21T03:55:57;26.70;;;16.40;;
34920;SDS011;21128;50.016;20.002;2022-08-21T03:58:26;26.20;;;16.67;;
34920;SDS011;21128;50.016;20.002;2022-08-21T04:01:00;30.43;;;17.27;;
34920;SDS011;21128;50.016;20.002;2022-08-21T04:03:34;27.97;;;16.77;;
34920;SDS011;21128;50.016;20.002;2022-08-21T04:06:02;19.87;;;15.30;;
34920;SDS011;21128;50.016;20.002;2022-08-21T04:08:37;25.93;;;15.07;;
34920;SDS011;21128;50.016;20.002;2022-08-21T04:11:04;21.27;;;15.33;;
34920;SDS011;21128;50.016;20.002;2022-08-21T04:13:39;22.27;;;15.10;;
34920;SDS011;21128;50.016;20.002;2022-08-21T04:16:19;30.13;;;15.87;;
34920;SDS011;21128;50.016;20.002;2022-08-21T04:18:46;28.93;;;15.70;;
34920;SDS011;21128;50.016;20.002;2022-08-21T04:21:13;26.57;;;16.75;;
34920;SDS011;21128;50.016;20.002;2022-08-21T04:23:40;22.35;;;14.95;;
34920;SDS011;21128;50.016;20.002;2022-08-21T04:26:07;21.03;;;14.70;;
34920;SDS011;21128;50.016;20.002;2022-08-21T04:28:34;24.20;;;14.90;;
34920;SDS011;21128;50.016;20.002;2022-08-21T04:31:01;24.40;;;15.80;;
34920;SDS011;21128;50.016;20.002;2022-08-21T04:33:28;25.50;;;14.37;;
34920;SDS011;21128;50.016;20.002;2022-08-21T04:35:55;26.93;;;14.77;;
34920;SDS011;21128;50.016;20.002;2022-08-21T04:38:22;22.30;;;14.47;;
34920;SDS011;21128;50.016;20.002;2022-08-21T04:40:50;23.07;;;16.17;;
34920;SDS011;21128;50.016;20.002;2022-08-21T04:43:18;26.67;;;16.13;;
34920;SDS011;21128;50.016;20.002;2022-08-21T04:45:47;25.47;;;16.77;;
34920;SDS011;21128;50.016;20.002;2022-08-21T04:48:16;26.87;;;16.83;;
34920;SDS011;21128;50.016;20.002;2022-08-21T04:50:54;26.40;;;16.23;;
34920;SDS011;21128;50.016;20.002;2022-08-21T04:53:37;27.30;;;16.33;;
34920;SDS011;21128;50.016;20.002;2022-08-21T04:58:59;24.17;;;15.53;;
34920;SDS011;21128;50.016;20.002;2022-08-21T05:01:32;25.00;;;15.15;;
34920;SDS011;21128;50.016;20.002;2022-08-21T05:04:10;27.60;;;15.80;;
34920;SDS011;21128;50.016;20.002;2022-08-21T05:06:47;26.73;;;16.47;;
34920;SDS011;21128;50.016;20.002;2022-08-21T05:09:16;27.57;;;17.00;;
34920;SDS011;21128;50.016;20.002;2022-08-21T05:11:45;31.07;;;19.10;;
34920;SDS011;21128;50.016;20.002;2022-08-21T05:14:13;30.03;;;16.60;;
34920;SDS011;21128;50.016;20.002;2022-08-21T05:16:46;27.25;;;17.60;;
34920;SDS011;21128;50.016;20.002;2022-08-21T05:19:13;32.67;;;17.48;;
34920;SDS011;21128;50.016;20.002;2022-08-21T05:21:41;35.43;;;17.87;;
34920;SDS011;21128;50.016;20.002;2022-08-21T05:24:10;30.27;;;18.10;;
34920;SDS011;21128;50.016;20.002;2022-08-21T05:26:38;26.90;;;18.83;;
34920;SDS011;21128;50.016;20.002;2022-08-21T05:29:06;28.95;;;18.05;;
34920;SDS011;21128;50.016;20.002;2022-08-21T05:31:33;29.80;;;18.20;;
34920;SDS011;21128;50.016;20.002;2022-08-21T05:34:00;32.47;;;19.27;;
34920;SDS011;21128;50.016;20.002;2022-08-21T05:36:27;27.73;;;17.93;;
34920;SDS011;21128;50.016;20.002;2022-08-21T05:38:54;31.57;;;19.42;;
34920;SDS011;21128;50.016;20.002;2022-08-21T05:41:21;25.83;;;18.17;;
34920;SDS011;21128;50.016;20.002;2022-08-21T05:43:54;31.83;;;20.40;;
34920;SDS011;21128;50.016;20.002;2022-08-21T05:46:21;30.67;;;20.23;;
34920;SDS011;21128;50.016;20.002;2022-08-21T05:48:48;34.18;;;21.20;;
34920;SDS011;21128;50.016;20.002;2022-08-21T05:51:15;31.93;;;20.20;;
34920;SDS011;21128;50.016;20.002;2022-08-21T05:53:49;32.40;;;20.35;;
34920;SDS011;21128;50.016;20.002;2022-08-21T05:58:42;40.00;;;21.47;;
34920;SDS011;21128;50.016;20.002;2022-08-21T06:01:09;41.13;;;21.53;;
34920;SDS011;21128;50.016;20.002;2022-08-21T06:03:38;33.73;;;21.47;;
34920;SDS011;21128;50.016;20.002;2022-08-21T06:06:06;28.57;;;20.47;;
34920;SDS011;21128;50.016;20.002;2022-08-21T06:08:33;34.80;;;22.77;;
34920;SDS011;21128;50.016;20.002;2022-08-21T06:11:00;42.00;;;20.23;;
34920;SDS011;21128;50.016;20.002;2022-08-21T06:13:29;41.67;;;22.53;;
34920;SDS011;21128;50.016;20.002;2022-08-21T06:16:03;38.83;;;21.87;;
34920;SDS011;21128;50.016;20.002;2022-08-21T06:18:41;32.83;;;20.97;;
34920;SDS011;21128;50.016;20.002;2022-08-21T06:21:08;36.23;;;20.70;;
34920;SDS011;21128;50.016;20.002;2022-08-21T06:23:37;43.10;;;22.43;;
34920;SDS011;21128;50.016;20.002;2022-08-21T06:26:05;34.67;;;22.77;;
34920;SDS011;21128;50.016;20.002;2022-08-21T06:28:34;46.87;;;22.63;;
34920;SDS011;21128;50.016;20.002;2022-08-21T06:31:01;39.85;;;22.60;;
34920;SDS011;21128;50.016;20.002;2022-08-21T06:33:47;33.87;;;21.10;;
34920;SDS011;21128;50.016;20.002;2022-08-21T06:36:14;41.67;;;23.00;;
34920;SDS011;21128;50.016;20.002;2022-08-21T06:38:41;46.70;;;24.02;;
34920;SDS011;21128;50.016;20.002;2022-08-21T06:41:09;40.70;;;22.45;;
34920;SDS011;21128;50.016;20.002;2022-08-21T06:43:36;37.70;;;22.15;;
34920;SDS011;21128;50.016;20.002;2022-08-21T06:46:04;41.20;;;22.37;;
34920;SDS011;21128;50.016;20.002;2022-08-21T06:48:31;36.98;;;20.68;;
34920;SDS011;21128;50.016;20.002;2022-08-21T06:50:59;41.55;;;22.65;;
34920;SDS011;21128;50.016;20.002;2022-08-21T06:53:33;43.92;;;22.27;;
34920;SDS011;21128;50.016;20.002;2022-08-21T06:56:00;40.37;;;23.50;;
34920;SDS011;21128;50.016;20.002;2022-08-21T06:58:27;46.45;;;23.65;;
34920;SDS011;21128;50.016;20.002;2022-08-21T07:00:55;37.00;;;21.40;;
34920;SDS011;21128;50.016;20.002;2022-08-21T07:03:29;43.23;;;22.77;;
34920;SDS011;21128;50.016;20.002;2022-08-21T07:06:07;39.33;;;22.27;;
34920;SDS011;21128;50.016;20.002;2022-08-21T07:08:35;36.87;;;20.57;;
34920;SDS011;21128;50.016;20.002;2022-08-21T07:11:08;37.80;;;21.13;;
34920;SDS011;21128;50.016;20.002;2022-08-21T07:13:39;37.87;;;20.87;;
34920;SDS011;21128;50.016;20.002;2022-08-21T07:16:06;36.98;;;20.75;;
34920;SDS011;21128;50.016;20.002;2022-08-21T07:18:40;39.87;;;21.97;;
34920;SDS011;21128;50.016;20.002;2022-08-21T07:21:07;33.63;;;21.30;;
34920;SDS011;21128;50.016;20.002;2022-08-21T07:23:37;32.90;;;20.90;;
34920;SDS011;21128;50.016;20.002;2022-08-21T07:26:07;40.40;;;21.97;;
34920;SDS011;21128;50.016;20.002;2022-08-21T07:28:34;41.07;;;21.67;;
34920;SDS011;21128;50.016;20.002;2022-08-21T07:31:02;34.33;;;20.77;;
34920;SDS011;21128;50.016;20.002;2022-08-21T07:33:30;31.83;;;20.10;;
34920;SDS011;21128;50.016;20.002;2022-08-21T07:35:59;32.10;;;21.43;;
34920;SDS011;21128;50.016;20.002;2022-08-21T07:38:26;34.40;;;21.20;;
34920;SDS011;21128;50.016;20.002;2022-08-21T07:40:54;32.42;;;20.52;;
34920;SDS011;21128;50.016;20.002;2022-08-21T07:43:25;35.87;;;20.80;;
34920;SDS011;21128;50.016;20.002;2022-08-21T07:45:52;40.13;;;22.70;;
34920;SDS011;21128;50.016;20.002;2022-08-21T07:48:21;30.63;;;21.07;;
34920;SDS011;21128;50.016;20.002;2022-08-21T07:50:48;35.17;;;20.87;;
34920;SDS011;21128;50.016;20.002;2022-08-21T07:53:22;32.43;;;21.43;;
34920;SDS011;21128;50.016;20.002;2022-08-21T07:55:49;31.93;;;20.40;;
34920;SDS011;21128;50.016;20.002;2022-08-21T07:58:15;38.77;;;21.13;;
34920;SDS011;21128;50.016;20.002;2022-08-21T08:00:43;37.37;;;22.23;;
34920;SDS011;21128;50.016;20.002;2022-08-21T08:03:10;38.50;;;22.33;;
34920;SDS011;21128;50.016;20.002;2022-08-21T08:05:43;36.37;;;22.33;;
34920;SDS011;21128;50.016;20.002;2022-08-21T08:08:10;36.40;;;22.73;;
34920;SDS011;21128;50.016;20.002;2022-08-21T08:10:37;41.57;;;24.40;;
34920;SDS011;21128;50.016;20.002;2022-08-21T08:13:05;35.60;;;21.53;;
34920;SDS011;21128;50.016;20.002;2022-08-21T08:15:39;33.90;;;22.50;;
34920;SDS011;21128;50.016;20.002;2022-08-21T08:18:13;41.93;;;22.03;;
34920;SDS011;21128;50.016;20.002;2022-08-21T08:20:40;34.10;;;21.53;;
34920;SDS011;21128;50.016;20.002;2022-08-21T08:23:11;37.37;;;22.20;;
34920;SDS011;21128;50.016;20.002;2022-08-21T08:25:38;35.77;;;21.13;;
34920;SDS011;21128;50.016;20.002;2022-08-21T08:28:05;34.73;;;20.57;;
34920;SDS011;21128;50.016;20.002;2022-08-21T08:30:33;35.13;;;21.87;;
34920;SDS011;21128;50.016;20.002;2022-08-21T08:33:00;41.57;;;22.03;;
34920;SDS011;21128;50.016;20.002;2022-08-21T08:35:27;34.23;;;20.70;;
34920;SDS011;21128;50.016;20.002;2022-08-21T08:37:55;34.47;;;19.83;;
34920;SDS011;21128;50.016;20.002;2022-08-21T08:40:25;33.47;;;21.57;;
34920;SDS011;21128;50.016;20.002;2022-08-21T08:43:00;33.23;;;20.97;;
34920;SDS011;21128;50.016;20.002;2022-08-21T08:45:36;29.70;;;20.20;;
34920;SDS011;21128;50.016;20.002;2022-08-21T08:48:06;33.70;;;19.07;;
34920;SDS011;21128;50.016;20.002;2022-08-21T08:50:56;29.63;;;20.63;;
34920;SDS011;21128;50.016;20.002;2022-08-21T08:53:30;35.73;;;20.90;;
34920;SDS011;21128;50.016;20.002;2022-08-21T08:56:13;32.57;;;20.87;;
34920;SDS011;21128;50.016;20.002;2022-08-21T08:58:41;30.37;;;20.53;;
34920;SDS011;21128;50.016;20.002;2022-08-21T09:01:16;28.40;;;19.63;;
34920;SDS011;21128;50.016;20.002;2022-08-21T09:03:45;30.37;;;20.13;;
34920;SDS011;21128;50.016;20.002;2022-08-21T09:12:25;40.47;;;21.47;;
34920;SDS011;21128;50.016;20.002;2022-08-21T09:15:15;31.03;;;19.53;;
34920;SDS011;21128;50.016;20.002;2022-08-21T09:18:26;39.90;;;19.73;;
34920;SDS011;21128;50.016;20.002;2022-08-21T09:27:23;30.83;;;20.37;;
34920;SDS011;21128;50.016;20.002;2022-08-21T09:29:34;27.15;;;19.10;;
34920;SDS011;21128;50.016;20.002;2022-08-21T09:32:07;35.27;;;19.73;;
34920;SDS011;21128;50.016;20.002;2022-08-21T09:34:37;22.73;;;17.30;;
34920;SDS011;21128;50.016;20.002;2022-08-21T09:37:04;30.17;;;18.57;;
34920;SDS011;21128;50.016;20.002;2022-08-21T09:39:44;29.70;;;18.03;;
34920;SDS011;21128;50.016;20.002;2022-08-21T09:42:11;31.03;;;18.30;;
34920;SDS011;21128;50.016;20.002;2022-08-21T09:45:00;22.53;;;17.43;;
34920;SDS011;21128;50.016;20.002;2022-08-21T09:47:33;28.07;;;18.17;;
34920;SDS011;21128;50.016;20.002;2022-08-21T09:50:10;31.27;;;18.47;;
34920;SDS011;21128;50.016;20.002;2022-08-21T09:52:55;25.13;;;17.43;;
34920;SDS011;21128;50.016;20.002;2022-08-21T09:55:39;24.70;;;17.00;;
34920;SDS011;21128;50.016;20.002;2022-08-21T09:59:11;21.07;;;16.53;;
34920;SDS011;21128;50.016;20.002;2022-08-21T10:02:01;27.00;;;17.10;;
34920;SDS011;21128;50.016;20.002;2022-08-21T10:04:42;26.83;;;16.90;;
34920;SDS011;21128;50.016;20.002;2022-08-21T10:07:42;28.53;;;17.60;;
34920;SDS011;21128;50.016;20.002;2022-08-21T10:10:20;26.20;;;15.90;;
34920;SDS011;21128;50.016;20.002;2022-08-21T10:12:58;26.07;;;15.87;;
34920;SDS011;21128;50.016;20.002;2022-08-21T10:21:28;29.63;;;18.10;;
34920;SDS011;21128;50.016;20.002;2022-08-21T10:24:09;26.47;;;17.97;;
34920;SDS011;21128;50.016;20.002;2022-08-21T10:35:13;28.47;;;18.67;;
34920;SDS011;21128;50.016;20.002;2022-08-21T10:41:02;33.67;;;19.90;;
34920;SDS011;21128;50.016;20.002;2022-08-21T10:43:49;31.87;;;20.27;;
34920;SDS011;21128;50.016;20.002;2022-08-21T10:51:56;33.33;;;21.53;;
34920;SDS011;21128;50.016;20.002;2022-08-21T10:54:54;36.15;;;22.00;;
34920;SDS011;21128;50.016;20.002;2022-08-21T10:57:29;32.97;;;19.80;;
34920;SDS011;21128;50.016;20.002;2022-08-21T11:00:16;23.90;;;13.40;;
34920;SDS011;21128;50.016;20.002;2022-08-21T11:06:08;14.97;;;7.33;;
34920;SDS011;21128;50.016;20.002;2022-08-21T11:11:24;8.20;;;4.20;;
34920;SDS011;21128;50.016;20.002;2022-08-21T11:13:57;7.33;;;3.80;;
34920;SDS011;21128;50.016;20.002;2022-08-21T11:19:38;7.00;;;3.43;;
34920;SDS011;21128;50.016;20.002;2022-08-21T11:22:50;6.33;;;3.33;;
34920;SDS011;21128;50.016;20.002;2022-08-21T11:25:29;4.03;;;2.70;;
34920;SDS011;21128;50.016;20.002;2022-08-21T11:28:02;7.37;;;3.50;;
34920;SDS011;21128;50.016;20.002;2022-08-21T11:36:54;5.77;;;2.47;;
34920;SDS011;21128;50.016;20.002;2022-08-21T11:39:40;3.27;;;2.20;;
34920;SDS011;21128;50.016;20.002;2022-08-21T11:42:30;3.20;;;2.50;;
34920;SDS011;21128;50.016;20.002;2022-08-21T11:50:27;4.95;;;1.90;;
34920;SDS011;21128;50.016;20.002;2022-08-21T11:53:08;6.97;;;2.80;;
34920;SDS011;21128;50.016;20.002;2022-08-21T11:55:45;5.03;;;2.17;;
34920;SDS011;21128;50.016;20.002;2022-08-21T12:00:56;7.57;;;2.20;;
34920;SDS011;21128;50.016;20.002;2022-08-21T12:03:39;3.70;;;2.10;;
34920;SDS011;21128;50.016;20.002;2022-08-21T12:06:10;7.23;;;2.10;;
34920;SDS011;21128;50.016;20.002;2022-08-21T12:08:40;3.10;;;1.70;;
34920;SDS011;21128;50.016;20.002;2022-08-21T12:11:27;3.40;;;1.90;;
34920;SDS011;21128;50.016;20.002;2022-08-21T12:13:59;3.20;;;1.63;;
34920;SDS011;21128;50.016;20.002;2022-08-21T12:16:40;3.65;;;2.05;;
34920;SDS011;21128;50.016;20.002;2022-08-21T12:26:55;2.30;;;1.70;;
34920;SDS011;21128;50.016;20.002;2022-08-21T12:29:25;2.33;;;1.60;;
34920;SDS011;21128;50.016;20.002;2022-08-21T12:31:59;6.27;;;2.00;;
34920;SDS011;21128;50.016;20.002;2022-08-21T12:34:35;5.37;;;2.00;;
34920;SDS011;21128;50.016;20.002;2022-08-21T12:37:40;4.50;;;1.75;;
34920;SDS011;21128;50.016;20.002;2022-08-21T12:40:10;5.60;;;1.60;;
34920;SDS011;21128;50.016;20.002;2022-08-21T12:42:46;3.10;;;1.93;;
34920;SDS011;21128;50.016;20.002;2022-08-21T12:45:26;4.67;;;1.73;;
34920;SDS011;21128;50.016;20.002;2022-08-21T12:50:38;4.20;;;2.10;;
34920;SDS011;21128;50.016;20.002;2022-08-21T12:53:12;3.70;;;2.20;;
34920;SDS011;21128;50.016;20.002;2022-08-21T12:55:44;4.17;;;2.10;;
34920;SDS011;21128;50.016;20.002;2022-08-21T12:58:21;2.62;;;2.12;;
34920;SDS011;21128;50.016;20.002;2022-08-21T13:01:00;3.47;;;1.93;;
34920;SDS011;21128;50.016;20.002;2022-08-21T13:03:35;5.97;;;2.20;;
34920;SDS011;21128;50.016;20.002;2022-08-21T13:06:04;4.00;;;2.23;;
34920;SDS011;21128;50.016;20.002;2022-08-21T13:08:33;3.90;;;2.33;;
34920;SDS011;21128;50.016;20.002;2022-08-21T13:11:05;7.90;;;2.30;;
34920;SDS011;21128;50.016;20.002;2022-08-21T13:13:33;10.83;;;3.90;;
34920;SDS011;21128;50.016;20.002;2022-08-21T13:16:02;7.43;;;2.30;;
34920;SDS011;21128;50.016;20.002;2022-08-21T13:18:51;3.77;;;2.00;;
34920;SDS011;21128;50.016;20.002;2022-08-21T13:21:32;5.17;;;2.57;;
34920;SDS011;21128;50.016;20.002;2022-08-21T13:24:26;4.20;;;2.80;;
34920;SDS011;21128;50.016;20.002;2022-08-21T13:27:02;3.73;;;2.40;;
34920;SDS011;21128;50.016;20.002;2022-08-21T13:29:30;5.30;;;2.90;;
34920;SDS011;21128;50.016;20.002;2022-08-21T13:32:02;6.17;;;2.30;;
34920;SDS011;21128;50.016;20.002;2022-08-21T13:34:34;3.37;;;2.27;;
34920;SDS011;21128;50.016;20.002;2022-08-21T13:37:08;3.40;;;2.33;;
34920;SDS011;21128;50.016;20.002;2022-08-21T13:39:38;4.13;;;2.13;;
34920;SDS011;21128;50.016;20.002;2022-08-21T13:42:08;2.83;;;2.15;;
34920;SDS011;21128;50.016;20.002;2022-08-21T13:44:43;2.67;;;2.30;;
34920;SDS011;21128;50.016;20.002;2022-08-21T13:47:12;3.43;;;2.70;;
34920;SDS011;21128;50.016;20.002;2022-08-21T13:49:47;5.13;;;3.30;;
34920;SDS011;21128;50.016;20.002;2022-08-21T13:52:21;4.80;;;2.70;;
34920;SDS011;21128;50.016;20.002;2022-08-21T13:57:34;6.77;;;2.77;;
34920;SDS011;21128;50.016;20.002;2022-08-21T14:02:49;3.87;;;3.10;;
34920;SDS011;21128;50.016;20.002;2022-08-21T14:05:21;3.73;;;3.10;;
34920;SDS011;21128;50.016;20.002;2022-08-21T14:08:10;10.10;;;3.40;;
34920;SDS011;21128;50.016;20.002;2022-08-21T14:10:51;5.43;;;3.00;;
34920;SDS011;21128;50.016;20.002;2022-08-21T14:16:11;3.27;;;2.87;;
34920;SDS011;21128;50.016;20.002;2022-08-21T14:21:31;3.17;;;2.87;;
34920;SDS011;21128;50.016;20.002;2022-08-21T14:24:08;4.80;;;3.43;;
34920;SDS011;21128;50.016;20.002;2022-08-21T14:27:04;6.05;;;2.45;;
34920;SDS011;21128;50.016;20.002;2022-08-21T14:29:34;4.17;;;2.83;;
34920;SDS011;21128;50.016;20.002;2022-08-21T14:32:12;4.53;;;2.93;;
34920;SDS011;21128;50.016;20.002;2022-08-21T14:34:47;2.73;;;2.53;;
34920;SDS011;21128;50.016;20.002;2022-08-21T14:37:14;5.30;;;2.70;;
34920;SDS011;21128;50.016;20.002;2022-08-21T14:39:41;3.67;;;2.60;;
34920;SDS011;21128;50.016;20.002;2022-08-21T14:42:08;4.00;;;2.60;;
34920;SDS011;21128;50.016;20.002;2022-08-21T14:44:35;4.43;;;2.30;;
34920;SDS011;21128;50.016;20.002;2022-08-21T14:47:02;3.10;;;2.30;;
34920;SDS011;21128;50.016;20.002;2022-08-21T14:49:30;3.97;;;2.90;;
34920;SDS011;21128;50.016;20.002;2022-08-21T14:51:58;3.77;;;2.40;;
34920;SDS011;21128;50.016;20.002;2022-08-21T14:54:29;6.47;;;2.23;;
34920;SDS011;21128;50.016;20.002;2022-08-21T14:57:02;2.47;;;2.22;;
34920;SDS011;21128;50.016;20.002;2022-08-21T14:59:32;1.97;;;1.60;;
34920;SDS011;21128;50.016;20.002;2022-08-21T15:01:59;3.45;;;2.00;;
34920;SDS011;21128;50.016;20.002;2022-08-21T15:04:33;5.50;;;1.90;;
34920;SDS011;21128;50.016;20.002;2022-08-21T15:07:01;5.43;;;1.80;;
34920;SDS011;21128;50.016;20.002;2022-08-21T15:09:28;10.60;;;2.73;;
34920;SDS011;21128;50.016;20.002;2022-08-21T15:11:56;5.70;;;2.05;;
34920;SDS011;21128;50.016;20.002;2022-08-21T15:14:25;3.77;;;1.70;;
34920;SDS011;21128;50.016;20.002;2022-08-21T15:17:02;2.67;;;1.80;;
34920;SDS011;21128;50.016;20.002;2022-08-21T15:19:44;2.20;;;1.70;;
34920;SDS011;21128;50.016;20.002;2022-08-21T15:22:11;3.75;;;2.30;;
34920;SDS011;21128;50.016;20.002;2022-08-21T15:24:38;5.10;;;1.90;;
34920;SDS011;21128;50.016;20.002;2022-08-21T15:27:06;2.20;;;2.00;;
34920;SDS011;21128;50.016;20.002;2022-08-21T15:29:34;2.10;;;1.90;;
34920;SDS011;21128;50.016;20.002;2022-08-21T15:32:18;3.58;;;2.75;;
34920;SDS011;21128;50.016;20.002;2022-08-21T15:34:56;3.57;;;2.57;;
34920;SDS011;21128;50.016;20.002;2022-08-21T15:37:24;4.45;;;2.90;;
34920;SDS011;21128;50.016;20.002;2022-08-21T15:39:52;6.47;;;3.40;;
34920;SDS011;21128;50.016;20.002;2022-08-21T15:42:19;4.93;;;4.20;;
34920;SDS011;21128;50.016;20.002;2022-08-21T15:44:54;8.77;;;5.70;;
34920;SDS011;21128;50.016;20.002;2022-08-21T15:47:34;6.07;;;5.40;;
34920;SDS011;21128;50.016;20.002;2022-08-21T15:50:04;9.07;;;5.53;;
34920;SDS011;21128;50.016;20.002;2022-08-21T15:52:34;9.10;;;6.27;;
34920;SDS011;21128;50.016;20.002;2022-08-21T15:55:01;8.13;;;6.50;;
34920;SDS011;21128;50.016;20.002;2022-08-21T15:57:28;8.05;;;5.50;;
34920;SDS011;21128;50.016;20.002;2022-08-21T16:00:00;7.50;;;6.57;;
34920;SDS011;21128;50.016;20.002;2022-08-21T16:02:39;16.90;;;8.50;;
34920;SDS011;21128;50.016;20.002;2022-08-21T16:05:11;12.33;;;7.85;;
34920;SDS011;21128;50.016;20.002;2022-08-21T16:07:39;18.45;;;9.30;;
34920;SDS011;21128;50.016;20.002;2022-08-21T16:10:06;8.83;;;7.50;;